Meteo Giornale » Osservazioni meteo Italia » Cagliari-Elmas

ore: 19:20 - Osservazioni Meteo Cagliari-Elmas
Lat. 39° 15' N Lon. 9° 4' E Alt. 4 metri s.l.m.

sereno Europe/Rome

20 °C

Sereno

Temp. 24 Ore

10 °C

25 °C

Sud/Sud-Est

11.1 Km/h

Dew point 14 °C

Umidità 68 %

Visibilità  10 Km

Il sole sorge alle ore 06:32

Il sole tramonta alle ore 20:11

Data e Ora Cielo e Fenomeni T °C DP °C Um. % Pres. hPa Vis. km Vento km/h
Oggi h: 19:20 sereno Sereno 20 14 68 1017 10 S/SE 11.1
Oggi h: 18:50 sereno Sereno 20 14 68 1018 10 S/SE 11.1
Oggi h: 18:20 sereno Sereno 21 15 68 1018 10 S/SE 14.8
Oggi h: 17:50 sereno Sereno 21 13 60 1017 10 S/SE 13
Oggi h: 17:20 sereno Sereno 22 12 53 1018 10 S/SE 13
Oggi h: 16:50 sereno Sereno 23 12 49 1018 10 S/SE 14.8
Oggi h: 16:20 sereno Sereno 22 12 53 1018 10 S/SE 14.8
Oggi h: 15:50 sereno Sereno 23 11 46 1018 10 S/SE 16.7
Oggi h: 15:20 sereno Sereno 24 10 41 1018 10 S/SE 14.8
Oggi h: 14:50 sereno Sereno 23 11 46 1019 10 S 14.8
Oggi h: 14:20 sereno Sereno 23 10 43 1019 10 S/SE 14.8
Oggi h: 13:50 sereno Sereno 24 8 35 1019 10 S 13
Oggi h: 13:20 sereno Sereno 24 7 33 1019 10 S/SE 13
Oggi h: 12:50 sereno Sereno 25 8 33 1019 10 S 9.3
Oggi h: 12:20 sereno Sereno 24 10 41 1020 10 S 9.3
Oggi h: 11:50 sereno Sereno 24 8 35 1020 10 S/SE 9.3
Oggi h: 11:20 sereno Sereno 23 10 43 1020 10 S 7.4
Oggi h: 10:50 sereno Sereno 22 8 40 1020 10 E/SE 7.4
Oggi h: 10:20 sereno Sereno 20 10 52 1020 10 N 3.7
Oggi h: 09:50 sereno Sereno 17 12 72 1020 10 N 3.7
Oggi h: 09:20 sereno Sereno 16 12 77 1019 10 N 5.5
Oggi h: 08:50 sereno Sereno 14 11 82 1019 10 N/NO 7.4
Oggi h: 08:20 sereno Sereno 13 11 87 1019 10 NO 9.3
Oggi h: 07:50 sereno Sereno 13 10 81 1019 10 N 5.5
Oggi h: 07:20 sereno Sereno 11 9 87 1019 10 N/NO 7.4
Oggi h: 06:50 sereno Sereno 10 8 87 1018 10 N/NO 9.3
Oggi h: 06:20 sereno Sereno 10 9 93 1018 10 N 7.4
Oggi h: 05:50 sereno Sereno 11 9 87 1018 10 N/NO 7.4
Oggi h: 05:20 sereno Sereno 11 9 87 1018 10 N/NO 7.4
Oggi h: 04:50 sereno Sereno 11 9 87 1018 10 N 5.5
Oggi h: 04:20 sereno Sereno 11 9 87 1018 10 N 5.5
Oggi h: 03:20 sereno Sereno 12 10 87 1019 10 N/NO 9.3
Oggi h: 02:50 sereno Sereno 13 10 81 1019 10 N 5.5
Oggi h: 02:20 sereno Sereno 13 10 81 1019 10 N 5.5
Oggi h: 01:50 sereno Sereno 13 11 87 1019 10 N 7.4
Oggi h: 01:20 sereno Sereno 14 12 87 1019 10 NO 9.3
Oggi h: 00:50 sereno Sereno 15 11 76 1019 10 N 3.7
Oggi h: 00:20 sereno Sereno 15 11 76 1019 10 N 3.7
Ieri h: 23:50 sereno Sereno 15 12 82 1019 10 NO 7.4
Ieri h: 23:20 sereno Sereno 16 12 77 1019 10 N/NO 7.4
Ieri h: 22:50 sereno Sereno 16 12 77 1019 10 N/NE 7.4
Ieri h: 22:20 sereno Sereno 18 12 67 1019 10 E 13
Ieri h: 21:50 sereno Sereno 17 11 67 1019 10 E 9.3
Ieri h: 21:20 sereno Sereno 18 13 72 1019 10 E/SE 11.1
Ieri h: 20:50 sereno Sereno 18 15 82 1018 10 E/SE 13
Ieri h: 20:20 sereno Sereno 18 15 82 1018 10 SE 11.1
Ieri h: 19:50 sereno Sereno 18 14 77 1018 10 SE 14.8